Time;durP1;ratioP1;P1;durP2;ratioP2;P2;SDS_P1;SDS_P2;PMS_P1;PMS_P2;Temp;Humidity;BMP_temperature;BMP_pressure;BME280_temperature;BME280_humidity;BME280_pressure;Samples;Min_cycle;Max_cycle;Signal;HPM_P1;HPM_P2
2023/08/16 00:02:24;;;;;;;13.95;10.40;;;;;;;-145.00;79.49;73042.97;5069627;28;20512;-76
2023/08/16 00:04:50;;;;;;;11.45;8.65;;;;;;;-145.00;79.23;73026.31;5070358;28;20049;-77
2023/08/16 00:07:17;;;;;;;11.60;8.45;;;;;;;-145.00;78.59;73013.81;5069658;28;20049;-77
2023/08/16 00:09:43;;;;;;;10.43;9.15;;;;;;;-145.00;78.46;73009.66;5069922;28;20040;-76
2023/08/16 00:12:10;;;;;;;10.00;8.15;;;;;;;-145.00;78.59;73013.81;5069368;28;20040;-77
2023/08/16 00:14:38;;;;;;;15.30;10.07;;;;;;;-145.00;79.40;73055.44;5069823;28;20048;-77
2023/08/16 00:17:04;;;;;;;10.02;8.70;;;;;;;-145.00;79.67;73047.13;5069238;28;20072;-77
2023/08/16 00:19:31;;;;;;;13.57;9.77;;;;;;;-145.00;77.99;73024.22;5069762;28;20048;-76
2023/08/16 00:21:57;;;;;;;11.65;9.65;;;;;;;-145.00;77.93;73026.31;5069978;28;20496;-77
2023/08/16 00:24:24;;;;;;;11.70;10.10;;;;;;;-145.00;78.76;73034.63;5068945;28;20123;-78
2023/08/16 00:26:50;;;;;;;10.93;9.23;;;;;;;-145.00;78.75;73028.38;5069808;28;20044;-77
2023/08/16 00:29:17;;;;;;;13.95;9.27;;;;;;;-145.00;78.43;73024.22;5069162;28;20049;-77
2023/08/16 00:31:44;;;;;;;11.35;9.38;;;;;;;-145.00;77.92;73022.13;5069247;28;20052;-77
2023/08/16 00:34:11;;;;;;;10.52;8.85;;;;;;;-145.00;78.18;73034.63;5069077;28;20040;-78
2023/08/16 00:36:37;;;;;;;12.35;8.82;;;;;;;-145.00;78.46;73030.47;5070126;28;20052;-77
2023/08/16 00:39:04;;;;;;;8.98;7.85;;;;;;;-145.00;78.34;73026.31;5069467;28;20056;-77
2023/08/16 00:41:31;;;;;;;11.20;8.98;;;;;;;-145.00;78.22;73030.47;5070392;28;20048;-77
2023/08/16 00:43:57;;;;;;;10.82;8.52;;;;;;;-145.00;78.00;73026.31;5070142;28;20051;-77
2023/08/16 00:46:24;;;;;;;10.48;8.15;;;;;;;-145.00;77.93;73026.31;5069579;28;20507;-77
2023/08/16 00:48:52;;;;;;;9.40;7.90;;;;;;;-145.00;77.45;73026.31;5069512;28;20055;-77
2023/08/16 00:51:19;;;;;;;10.80;7.97;;;;;;;-145.00;77.35;73030.47;5069061;28;20174;-77
2023/08/16 00:53:47;;;;;;;10.30;8.68;;;;;;;-145.00;77.31;73032.53;5069865;28;20045;-76
2023/08/16 00:56:14;;;;;;;11.90;8.77;;;;;;;-145.00;79.97;73090.84;5069073;28;20049;-77
2023/08/16 00:58:41;;;;;;;11.75;8.35;;;;;;;-145.00;79.69;73072.09;5069328;28;20054;-77
2023/08/16 01:01:08;;;;;;;9.68;7.38;;;;;;;-145.00;77.99;73055.44;5069135;28;20052;-77
2023/08/16 01:03:34;;;;;;;9.90;8.30;;;;;;;-145.00;78.38;73061.69;5069261;28;20071;-77
2023/08/16 01:06:05;;;;;;;9.85;8.05;;;;;;;-145.00;78.13;73040.88;5070332;28;20044;-77
2023/08/16 01:08:32;;;;;;;11.88;7.78;;;;;;;-145.00;77.69;73038.78;5072035;28;20040;-77
2023/08/16 01:11:03;;;;;;;9.48;7.30;;;;;;;-145.00;77.12;73040.88;5072596;28;20052;-77
2023/08/16 01:13:38;;;;;;;10.88;7.65;;;;;;;-145.00;76.98;73034.63;5072482;28;20037;-77
2023/08/16 01:16:08;;;;;;;9.55;6.78;;;;;;;-145.00;77.03;73026.31;5072240;28;20063;-77
2023/08/16 01:18:36;;;;;;;8.98;6.68;;;;;;;-145.00;76.69;73030.47;5072357;28;20053;-76
2023/08/16 01:21:04;;;;;;;8.73;6.35;;;;;;;-145.00;76.34;73030.47;5072168;28;20044;-78
2023/08/16 01:23:38;;;;;;;9.65;6.55;;;;;;;-145.00;77.08;73047.13;5071966;28;20524;-77
2023/08/16 01:26:13;;;;;;;7.05;5.93;;;;;;;-145.00;76.36;73038.78;5072317;28;20060;-77
2023/08/16 01:28:42;;;;;;;7.78;5.85;;;;;;;-145.00;75.06;73036.72;5072255;28;20059;-77
2023/08/16 01:31:09;;;;;;;7.68;5.32;;;;;;;-145.00;75.09;73028.38;5071089;28;20048;-77
2023/08/16 01:33:36;;;;;;;7.43;5.68;;;;;;;-145.00;74.78;73034.63;5072222;28;20051;-77
2023/08/16 01:36:02;;;;;;;8.15;5.43;;;;;;;-145.00;74.75;73032.53;5071894;28;20583;-76
2023/08/16 01:38:29;;;;;;;9.45;5.88;;;;;;;-145.00;75.11;73047.13;5071923;28;20086;-76
2023/08/16 01:41:02;;;;;;;7.38;5.85;;;;;;;-145.00;75.21;73047.13;5072333;28;20377;-77
2023/08/16 01:43:31;;;;;;;6.20;5.22;;;;;;;-145.00;74.77;73038.78;5051934;28;20072;-77
2023/08/16 01:46:01;;;;;;;6.93;5.57;;;;;;;-145.00;74.61;73047.13;5052556;28;20048;-77
2023/08/16 01:48:29;;;;;;;7.50;5.32;;;;;;;-145.00;74.44;73042.97;5064756;28;20044;-76
2023/08/16 01:50:56;;;;;;;7.75;5.90;;;;;;;-145.00;74.49;73047.13;5072196;28;20040;-76
2023/08/16 01:53:22;;;;;;;7.75;5.70;;;;;;;-145.00;74.86;73051.28;5071649;28;20431;-77
2023/08/16 01:55:48;;;;;;;9.00;6.07;;;;;;;-145.00;75.48;73063.78;5071993;28;20045;-77
2023/08/16 01:58:16;;;;;;;7.72;5.68;;;;;;;-145.00;75.32;73061.69;5071342;28;20045;-77
2023/08/16 02:00:42;;;;;;;6.75;5.40;;;;;;;-145.00;74.58;73059.59;5071620;28;20090;-76
2023/08/16 02:03:10;;;;;;;8.23;5.53;;;;;;;-145.00;74.78;73063.78;5071152;28;20048;-76
2023/08/16 02:05:37;;;;;;;9.35;6.07;;;;;;;-145.00;74.56;73067.94;5071507;28;20051;-77
2023/08/16 02:08:04;;;;;;;9.65;5.93;;;;;;;-145.00;74.41;73063.78;5071016;28;20045;-77
2023/08/16 02:10:30;;;;;;;8.20;6.40;;;;;;;-145.00;75.09;73082.50;5071840;28;20102;-77
2023/08/16 02:12:57;;;;;;;7.72;5.60;;;;;;;-145.00;74.73;73076.25;5071956;28;20071;-77
2023/08/16 02:15:23;;;;;;;6.90;5.90;;;;;;;-145.00;74.57;73099.16;5071075;28;20060;-77
2023/08/16 02:17:50;;;;;;;10.27;6.72;;;;;;;-145.00;75.02;73097.09;5071127;28;20048;-76
2023/08/16 02:20:18;;;;;;;8.93;5.82;;;;;;;-145.00;74.67;73088.75;5071100;28;20405;-77
2023/08/16 02:22:44;;;;;;;8.25;6.60;;;;;;;-145.00;74.72;73105.41;5071573;28;20040;-77
2023/08/16 02:25:11;;;;;;;8.98;6.82;;;;;;;-145.00;74.41;73088.75;5070779;28;20427;-77
2023/08/16 02:27:38;;;;;;;9.27;6.70;;;;;;;-145.00;74.25;73088.75;5071656;28;20454;-77
2023/08/16 02:30:06;;;;;;;8.77;6.50;;;;;;;-145.00;74.24;73084.59;5070573;28;20047;-77
2023/08/16 02:32:33;;;;;;;11.10;6.00;;;;;;;-145.00;74.18;73092.91;5071096;28;20040;-76
2023/08/16 02:35:00;;;;;;;9.50;6.63;;;;;;;-145.00;74.32;73097.09;5070983;28;20055;-76
2023/08/16 02:37:28;;;;;;;9.88;6.60;;;;;;;-145.00;74.37;73099.16;5070803;28;20037;-77
2023/08/16 02:39:54;;;;;;;8.73;5.93;;;;;;;-145.00;74.02;73092.91;5071242;28;20045;-77
2023/08/16 02:42:21;;;;;;;8.90;6.80;;;;;;;-145.00;74.41;73107.50;5068909;28;20052;-77
2023/08/16 02:44:47;;;;;;;10.75;7.10;;;;;;;-145.00;74.46;73113.75;5070723;28;20067;-77
2023/08/16 02:47:14;;;;;;;9.38;6.65;;;;;;;-145.00;74.41;73115.81;5070326;28;20048;-77
2023/08/16 02:49:41;;;;;;;10.23;6.38;;;;;;;-145.00;74.44;73117.91;5070559;28;20126;-77
2023/08/16 02:52:07;;;;;;;8.40;6.55;;;;;;;-145.00;74.52;73113.75;5070516;28;20049;-76
2023/08/16 02:54:35;;;;;;;9.73;7.07;;;;;;;-145.00;74.31;73119.97;5069110;28;20047;-77
2023/08/16 02:57:02;;;;;;;10.10;7.35;;;;;;;-145.00;74.35;73122.06;5070385;28;20051;-76
2023/08/16 02:59:28;;;;;;;10.13;7.18;;;;;;;-145.00;74.37;73128.31;5070449;28;20048;-77
2023/08/16 03:01:55;;;;;;;9.38;7.53;;;;;;;-145.00;74.46;73130.41;5070296;28;20044;-77
2023/08/16 03:04:21;;;;;;;11.15;7.63;;;;;;;-145.00;74.30;73130.41;5069811;28;20052;-76
2023/08/16 03:06:48;;;;;;;11.85;7.85;;;;;;;-145.00;74.41;73132.47;5070461;28;20048;-77
2023/08/16 03:09:14;;;;;;;9.45;8.00;;;;;;;-145.00;75.06;73159.53;5070046;28;20458;-77
2023/08/16 03:11:42;;;;;;;9.82;7.40;;;;;;;-145.00;75.06;73161.63;5070486;28;20052;-76
2023/08/16 03:14:08;;;;;;;11.38;8.07;;;;;;;-145.00;74.71;73151.22;5069939;28;20041;-77
2023/08/16 03:16:35;;;;;;;12.15;8.23;;;;;;;-145.00;74.75;73149.13;5070189;28;20047;-77
2023/08/16 03:19:01;;;;;;;9.10;7.72;;;;;;;-145.00;74.58;73147.06;5069946;28;20056;-74
2023/08/16 03:21:28;;;;;;;13.73;7.70;;;;;;;-145.00;74.79;73149.13;5070170;28;20049;-77
2023/08/16 03:23:54;;;;;;;10.63;7.80;;;;;;;-145.00;74.70;73149.13;5068763;28;20055;-77
2023/08/16 03:26:21;;;;;;;8.13;7.13;;;;;;;-145.00;75.04;73155.38;5069191;28;20569;-76
2023/08/16 03:28:49;;;;;;;11.65;7.30;;;;;;;-145.00;75.16;73161.63;5070181;28;20049;-77
2023/08/16 03:31:15;;;;;;;9.70;7.55;;;;;;;-145.00;74.44;73172.03;5068658;28;20059;-77
2023/08/16 03:33:42;;;;;;;8.93;7.15;;;;;;;-145.00;74.29;73176.19;5069193;28;20047;-76
2023/08/16 03:36:08;;;;;;;10.68;7.20;;;;;;;-145.00;74.57;73180.34;5069561;28;20040;-76
2023/08/16 03:38:35;;;;;;;11.98;8.07;;;;;;;-145.00;75.35;73205.34;5070335;28;20047;-77
2023/08/16 03:41:01;;;;;;;9.02;7.43;;;;;;;-145.00;75.96;73228.25;5069621;28;20052;-75
2023/08/16 03:43:31;;;;;;;9.68;7.32;;;;;;;-145.00;75.09;73219.91;5069769;28;20044;-77
2023/08/16 03:45:59;;;;;;;8.25;7.28;;;;;;;-145.00;75.10;73222.00;5069958;28;20059;-76
2023/08/16 03:48:25;;;;;;;12.18;8.95;;;;;;;-145.00;75.11;73217.84;5069392;28;20492;-77
2023/08/16 03:50:51;;;;;;;11.77;7.93;;;;;;;-145.00;75.52;73222.00;5069544;28;20037;-76
2023/08/16 03:53:18;;;;;;;8.63;6.88;;;;;;;-145.00;75.16;73222.00;5069383;28;20064;-77
2023/08/16 03:55:44;;;;;;;10.63;6.93;;;;;;;-145.00;75.55;73230.31;5069806;28;20041;-77
2023/08/16 03:58:11;;;;;;;11.10;8.15;;;;;;;-145.00;75.34;73224.09;5069349;28;20079;-76
2023/08/16 04:00:37;;;;;;;10.90;7.78;;;;;;;-145.00;75.40;73226.16;5069508;28;20048;-77
2023/08/16 04:03:05;;;;;;;12.40;8.23;;;;;;;-145.00;75.37;73222.00;5069169;28;20052;-77
2023/08/16 04:05:32;;;;;;;8.85;7.72;;;;;;;-145.00;75.26;73226.16;5069706;28;20041;-76
2023/08/16 04:07:58;;;;;;;9.90;8.30;;;;;;;-145.00;75.37;73230.31;5070260;28;20505;-76
2023/08/16 04:10:25;;;;;;;12.68;8.55;;;;;;;-145.00;75.20;73228.25;5069754;28;20052;-76
2023/08/16 04:12:51;;;;;;;11.70;8.20;;;;;;;-145.00;75.29;73230.31;5070334;28;20041;-77
2023/08/16 04:15:18;;;;;;;11.95;7.95;;;;;;;-145.00;75.38;73226.16;5070490;28;20389;-76
2023/08/16 04:17:44;;;;;;;12.30;8.10;;;;;;;-145.00;75.24;73230.31;5071349;28;20515;-76
2023/08/16 04:20:13;;;;;;;10.32;8.32;;;;;;;-145.00;75.29;73228.25;5070065;28;20059;-76
2023/08/16 04:22:39;;;;;;;9.00;7.55;;;;;;;-145.00;75.40;73240.75;5070720;28;20044;-77
2023/08/16 04:25:08;;;;;;;8.77;7.68;;;;;;;-145.00;75.62;73238.66;5069967;28;20110;-76
2023/08/16 04:27:35;;;;;;;11.88;8.10;;;;;;;-145.00;75.75;73244.91;5070012;28;20495;-76
2023/08/16 04:30:01;;;;;;;9.45;8.02;;;;;;;-145.00;75.86;73249.06;5069975;28;20053;-75
2023/08/16 04:32:29;;;;;;;11.52;7.70;;;;;;;-145.00;76.00;73249.06;5074296;28;20051;-79
2023/08/16 04:34:55;;;;;;;11.27;7.80;;;;;;;-145.00;76.06;73251.16;5080906;28;20044;-79
2023/08/16 04:37:23;;;;;;;9.10;7.13;;;;;;;-145.00;76.35;73255.31;5080988;28;20052;-80
2023/08/16 04:39:50;;;;;;;8.60;7.63;;;;;;;-145.00;76.52;73249.06;5081317;28;20041;-78
2023/08/16 04:42:17;;;;;;;9.48;7.50;;;;;;;-145.00;76.32;73246.97;5080708;28;20049;-79
2023/08/16 04:44:43;;;;;;;9.20;8.13;;;;;;;-145.00;76.62;73255.31;5085527;28;20041;-79
2023/08/16 04:47:10;;;;;;;12.63;7.85;;;;;;;-145.00;77.62;73280.28;5085728;28;20044;-79
2023/08/16 04:49:36;;;;;;;8.82;7.75;;;;;;;-145.00;77.05;73276.13;5085538;28;20043;-79
2023/08/16 04:52:03;;;;;;;8.98;7.85;;;;;;;-145.00;76.36;73255.31;5086449;28;20383;-79
2023/08/16 04:54:31;;;;;;;11.00;8.30;;;;;;;-145.00;76.41;73253.22;5085437;28;20044;-79
2023/08/16 04:56:58;;;;;;;9.68;7.65;;;;;;;-145.00;76.60;73246.97;5088465;28;20063;-78
2023/08/16 04:59:24;;;;;;;10.00;7.60;;;;;;;-145.00;76.77;73242.81;5089703;28;20045;-78
2023/08/16 05:01:51;;;;;;;7.63;6.93;;;;;;;-145.00;76.68;73238.66;5087156;28;20040;-79
2023/08/16 05:04:17;;;;;;;10.50;8.05;;;;;;;-145.00;77.45;73263.63;5082877;28;20045;-77
2023/08/16 05:06:44;;;;;;;9.80;8.38;;;;;;;-145.00;77.86;73271.97;5082678;28;20044;-78
2023/08/16 05:09:11;;;;;;;9.48;7.45;;;;;;;-145.00;77.27;73255.31;5083496;28;20435;-78
2023/08/16 05:11:40;;;;;;;10.85;6.95;;;;;;;-145.00;77.00;73242.81;5080220;28;20598;-78
2023/08/16 05:14:06;;;;;;;10.68;7.05;;;;;;;-145.00;77.26;73251.16;5080697;28;20492;-75
2023/08/16 05:16:33;;;;;;;10.05;7.90;;;;;;;-145.00;76.78;73232.41;5071636;28;20054;-74
2023/08/16 05:18:59;;;;;;;10.90;8.23;;;;;;;-145.00;76.91;73228.25;5070699;28;20052;-73
2023/08/16 05:21:26;;;;;;;9.80;7.47;;;;;;;-145.00;76.44;73213.66;5069271;28;20768;-75
2023/08/16 05:23:53;;;;;;;9.40;7.60;;;;;;;-145.00;76.57;73209.50;5070709;28;20056;-73
2023/08/16 05:26:19;;;;;;;9.10;8.20;;;;;;;-145.00;77.14;73226.16;5069000;28;20052;-73
2023/08/16 05:28:47;;;;;;;14.20;9.38;;;;;;;-145.00;77.78;73242.81;5070423;28;20475;-73
2023/08/16 05:31:15;;;;;;;12.30;9.88;;;;;;;-145.00;80.79;73292.78;5068656;28;20055;-73
2023/08/16 05:33:41;;;;;;;14.45;9.30;;;;;;;-145.00;80.25;73280.28;5070001;28;20547;-74
2023/08/16 05:36:08;;;;;;;11.63;10.00;;;;;;;-145.00;81.38;73313.59;5069847;28;20087;-73
2023/08/16 05:38:35;;;;;;;10.90;8.35;;;;;;;-145.00;80.12;73271.97;5070490;28;20048;-73
2023/08/16 05:41:03;;;;;;;13.40;9.63;;;;;;;-145.00;78.81;73244.91;5069529;28;20059;-73
2023/08/16 05:43:29;;;;;;;12.25;9.02;;;;;;;-145.00;78.51;73228.25;5070022;28;20436;-73
2023/08/16 05:45:57;;;;;;;9.65;8.50;;;;;;;-145.00;78.40;73219.91;5070017;28;20072;-73
2023/08/16 05:48:24;;;;;;;10.75;8.60;;;;;;;-145.00;77.43;73188.69;5069472;28;20051;-74
2023/08/16 05:50:50;;;;;;;10.20;8.55;;;;;;;-145.00;76.98;73167.88;5069955;28;20044;-73
2023/08/16 05:53:17;;;;;;;9.65;8.35;;;;;;;-145.00;77.64;73165.78;5068856;28;20416;-73
2023/08/16 05:55:43;;;;;;;11.40;8.38;;;;;;;-145.00;77.04;73147.06;5069629;28;20053;-73
2023/08/16 05:58:10;;;;;;;11.13;8.90;;;;;;;-145.00;77.39;73153.28;5069237;28;20044;-73
2023/08/16 06:00:36;;;;;;;9.45;8.48;;;;;;;-145.00;79.24;73215.75;5069535;28;20074;-73
2023/08/16 06:03:05;;;;;;;9.82;7.90;;;;;;;-145.00;78.74;73184.53;5068783;28;20496;-73
2023/08/16 06:05:31;;;;;;;11.15;9.00;;;;;;;-145.00;80.14;73209.50;5069175;28;20044;-73
2023/08/16 06:07:58;;;;;;;10.15;8.43;;;;;;;-145.00;80.89;73224.09;5069348;28;20051;-73
2023/08/16 06:10:25;;;;;;;11.00;7.38;;;;;;;-145.00;81.33;73234.50;5068533;28;20048;-73
2023/08/16 06:12:51;;;;;;;9.68;7.47;;;;;;;-145.00;78.61;73192.84;5069097;28;20048;-73
2023/08/16 06:15:17;;;;;;;7.93;7.00;;;;;;;-145.00;76.90;73159.53;5068745;28;20053;-73
2023/08/16 06:17:44;;;;;;;7.70;6.43;;;;;;;-145.00;75.61;73128.31;5069322;28;20048;-73
2023/08/16 06:20:12;;;;;;;10.25;6.18;;;;;;;-145.00;73.97;73105.41;5068486;28;20048;-73
2023/08/16 06:22:39;;;;;;;7.45;6.03;;;;;;;-145.00;73.72;73082.50;5069160;28;20686;-74
2023/08/16 06:25:07;;;;;;;7.97;5.65;;;;;;;-145.00;72.99;73078.34;5068277;28;20060;-73
2023/08/16 06:27:34;;;;;;;8.68;5.60;;;;;;;-145.00;73.59;73092.91;5069284;28;20052;-73
2023/08/16 06:30:00;;;;;;;11.07;5.95;;;;;;;-145.00;73.10;73072.09;5069226;28;20040;-73
2023/08/16 06:32:27;;;;;;;7.28;4.78;;;;;;;-145.00;72.70;73090.84;5068421;28;20492;-73
2023/08/16 06:34:53;;;;;;;6.60;5.20;;;;;;;-145.00;71.88;73074.19;5068771;28;20166;-72
2023/08/16 06:37:21;;;;;;;8.48;4.88;;;;;;;-145.00;71.36;73063.78;5068285;28;20055;-73
2023/08/16 06:39:48;;;;;;;7.32;5.22;;;;;;;-145.00;71.05;73059.59;5068678;28;20052;-73
2023/08/16 06:42:14;;;;;;;8.48;5.90;;;;;;;-145.00;73.10;73126.22;5068389;28;20423;-73
2023/08/16 06:44:41;;;;;;;6.47;5.40;;;;;;;-145.00;74.55;73138.72;5068432;28;20051;-73
2023/08/16 06:47:07;;;;;;;6.55;5.00;;;;;;;-145.00;72.89;73084.59;5068220;28;20052;-73
2023/08/16 06:49:34;;;;;;;6.45;5.00;;;;;;;-145.00;73.33;73078.34;5067070;28;20098;-73
2023/08/16 06:52:00;;;;;;;6.68;5.10;;;;;;;-145.00;71.76;73053.38;5068719;28;20051;-74
2023/08/16 06:54:28;;;;;;;8.38;4.95;;;;;;;-145.00;73.19;73105.41;5068298;28;20048;-73
2023/08/16 06:56:57;;;;;;;6.93;5.47;;;;;;;-145.00;73.13;73088.75;5068461;28;20048;-73
2023/08/16 06:59:24;;;;;;;6.32;4.80;;;;;;;-145.00;72.47;73084.59;5067676;28;20052;-73
2023/08/16 07:01:51;;;;;;;5.22;4.70;;;;;;;-145.00;73.88;73063.78;5068128;28;20048;-73
2023/08/16 07:04:17;;;;;;;7.25;5.03;;;;;;;-145.00;72.81;73032.53;5066981;28;20127;-73
2023/08/16 07:06:44;;;;;;;7.65;5.30;;;;;;;-145.00;73.19;73030.47;5067827;28;20060;-73
2023/08/16 07:09:10;;;;;;;7.50;5.38;;;;;;;-145.00;74.66;73049.19;5067231;28;20094;-73
2023/08/16 07:11:38;;;;;;;5.75;5.15;;;;;;;-145.00;73.75;73009.66;5067841;28;20051;-73
2023/08/16 07:14:04;;;;;;;6.05;4.90;;;;;;;-145.00;71.44;72963.84;5067154;28;20048;-73
2023/08/16 07:16:33;;;;;;;7.00;4.72;;;;;;;-145.00;69.49;72961.75;5067988;28;20045;-72
2023/08/16 07:18:59;;;;;;;7.75;5.20;;;;;;;-145.00;69.24;72974.25;5067818;28;20048;-73
2023/08/16 07:21:27;;;;;;;6.55;5.03;;;;;;;-145.00;69.53;72968.00;5067802;28;20156;-73
2023/08/16 07:23:53;;;;;;;5.28;4.28;;;;;;;-145.00;69.79;73005.47;5068200;28;20068;-72
2023/08/16 07:26:20;;;;;;;3.92;3.53;;;;;;;-145.00;68.27;72972.16;5068807;28;20523;-72
2023/08/16 07:28:48;;;;;;;4.40;3.80;;;;;;;-145.00;67.33;72959.69;5068149;28;20518;-73
2023/08/16 07:31:14;;;;;;;7.30;3.90;;;;;;;-145.00;65.71;72930.53;5068968;28;20048;-73
2023/08/16 07:33:41;;;;;;;5.88;3.70;;;;;;;-145.00;65.74;72884.72;5067809;28;20051;-73
2023/08/16 07:36:08;;;;;;;7.80;4.10;;;;;;;-145.00;63.90;72880.56;5067878;28;20054;-73
2023/08/16 07:38:34;;;;;;;6.75;3.60;;;;;;;-145.00;62.55;72870.16;5068217;28;20499;-73
2023/08/16 07:41:01;;;;;;;5.15;3.00;;;;;;;-145.00;61.85;72816.03;5068724;28;20048;-73
2023/08/16 07:43:28;;;;;;;4.43;3.22;;;;;;;-145.00;58.82;72768.16;5068504;28;20067;-73
2023/08/16 07:45:56;;;;;;;4.38;3.20;;;;;;;-145.00;57.89;72691.13;5067781;28;20060;-73
2023/08/16 07:48:23;;;;;;;4.15;3.30;;;;;;;-145.00;57.69;72639.09;5066800;28;20136;-73
2023/08/16 07:50:50;;;;;;;4.10;3.15;;;;;;;-145.00;53.93;72570.41;5067859;28;20052;-74
2023/08/16 07:53:17;;;;;;;7.72;3.05;;;;;;;-145.00;51.18;72576.63;5066614;28;20056;-73
2023/08/16 07:55:43;;;;;;;3.85;2.80;;;;;;;-145.00;52.24;72622.44;5067054;28;20048;-73
2023/08/16 07:58:10;;;;;;;3.40;2.80;;;;;;;-145.00;51.87;72564.16;5066751;28;20056;-73
2023/08/16 08:00:36;;;;;;;5.32;3.25;;;;;;;-145.00;54.24;72637.00;5066742;28;20388;-73
2023/08/16 08:03:05;;;;;;;6.32;3.13;;;;;;;-145.00;55.57;72684.88;5066575;28;20049;-73
2023/08/16 08:05:31;;;;;;;4.35;2.90;;;;;;;-145.00;56.64;72599.53;5067179;28;20051;-73
2023/08/16 08:07:58;;;;;;;5.32;2.83;;;;;;;-145.00;53.56;72647.41;5067276;28;20052;-73
2023/08/16 08:10:24;;;;;;;6.88;2.97;;;;;;;-145.00;55.09;72630.75;5066497;28;20488;-73
2023/08/16 08:12:51;;;;;;;3.65;2.75;;;;;;;-145.00;55.27;72580.81;5067119;28;20147;-73
2023/08/16 08:15:17;;;;;;;3.53;2.78;;;;;;;-145.00;51.66;72455.91;5066386;28;20639;-73
2023/08/16 08:17:45;;;;;;;2.97;2.67;;;;;;;-145.00;48.53;72435.09;5070701;28;20058;-73
2023/08/16 08:20:14;;;;;;;4.35;2.83;;;;;;;-145.00;50.90;72584.97;5070819;28;20053;-73
2023/08/16 08:22:40;;;;;;;3.03;2.45;;;;;;;-145.00;51.77;72501.69;5071069;28;20101;-73
2023/08/16 08:25:08;;;;;;;6.28;2.63;;;;;;;-145.00;50.74;72399.72;5070523;28;20681;-73
2023/08/16 08:27:35;;;;;;;4.80;2.65;;;;;;;-145.00;48.61;72318.53;5071152;28;20048;-73
2023/08/16 08:30:02;;;;;;;4.95;2.67;;;;;;;-145.00;47.00;72272.72;5070886;28;20052;-74
2023/08/16 08:32:29;;;;;;;3.10;2.38;;;;;;;-145.00;46.86;72235.25;5070703;28;20468;-73
2023/08/16 08:34:55;;;;;;;3.55;2.53;;;;;;;-145.00;50.14;72204.03;5071204;28;20053;-74
2023/08/16 08:37:23;;;;;;;6.10;2.47;;;;;;;-145.00;45.91;72162.41;5070153;28;20053;-74
2023/08/16 08:39:49;;;;;;;3.40;2.35;;;;;;;-145.00;43.68;72131.19;5070692;28;20186;-73
2023/08/16 08:42:17;;;;;;;3.30;2.17;;;;;;;-145.00;44.56;72097.91;5072047;28;20044;-74
2023/08/16 08:44:44;;;;;;;5.22;2.20;;;;;;;-145.00;44.75;72102.06;5072825;28;20055;-74
2023/08/16 08:47:10;;;;;;;4.30;2.40;;;;;;;-145.00;43.97;72120.78;5071565;28;20049;-75
2023/08/16 08:49:39;;;;;;;4.63;2.40;;;;;;;-145.00;44.86;72068.75;5071932;28;20051;-74
2023/08/16 08:52:06;;;;;;;4.25;2.85;;;;;;;-145.00;43.21;72064.59;5071855;28;20139;-73
2023/08/16 08:54:33;;;;;;;2.70;2.10;;;;;;;-145.00;43.84;72043.78;5071495;28;20044;-73
2023/08/16 08:57:00;;;;;;;3.53;2.00;;;;;;;-145.00;44.97;72022.97;5071088;28;20056;-73
2023/08/16 08:59:29;;;;;;;5.22;2.80;;;;;;;-145.00;42.00;72016.72;5069641;28;20045;-74
2023/08/16 09:01:56;;;;;;;3.15;2.22;;;;;;;-145.00;41.79;72072.91;5070167;28;20063;-77
2023/08/16 09:04:23;;;;;;;4.13;2.40;;;;;;;-145.00;45.03;72247.75;5070576;28;20070;-73
2023/08/16 09:06:50;;;;;;;6.18;2.38;;;;;;;-145.00;46.98;72122.88;5070111;28;20416;-74
2023/08/16 09:09:17;;;;;;;3.65;2.40;;;;;;;-145.00;44.65;72072.91;5069688;28;20522;-74
2023/08/16 09:11:45;;;;;;;3.63;2.45;;;;;;;-145.00;44.42;72064.59;5069991;28;20131;-75
2023/08/16 09:14:11;;;;;;;3.03;2.25;;;;;;;-145.00;43.00;72031.28;5069282;28;20741;-75
2023/08/16 09:16:38;;;;;;;5.88;2.22;;;;;;;-145.00;43.38;71989.66;5069671;28;20044;-75
2023/08/16 09:19:12;;;;;;;2.78;2.15;;;;;;;-145.00;42.85;71943.88;5069330;28;20053;-75
2023/08/16 09:21:39;;;;;;;5.07;2.17;;;;;;;-145.00;39.69;71935.56;5069355;28;20048;-76
2023/08/16 09:24:07;;;;;;;5.53;1.88;;;;;;;-145.00;41.84;71902.25;5068816;28;20053;-75
2023/08/16 09:26:33;;;;;;;4.25;2.15;;;;;;;-145.00;40.64;71906.41;5069595;28;20043;-76
2023/08/16 09:29:03;;;;;;;5.30;2.30;;;;;;;-145.00;40.04;71952.19;5068509;28;20048;-76
2023/08/16 09:31:31;;;;;;;3.50;2.25;;;;;;;-145.00;40.92;71906.41;5068630;28;20041;-76
2023/08/16 09:33:59;;;;;;;2.58;2.17;;;;;;;-145.00;42.06;71889.75;5069130;28;20052;-75
2023/08/16 09:36:28;;;;;;;3.60;2.08;;;;;;;-145.00;40.29;71898.09;5068974;28;20122;-75
2023/08/16 09:39:00;;;;;;;4.80;2.55;;;;;;;-145.00;40.33;71956.38;5069260;28;20052;-76
2023/08/16 09:41:27;;;;;;;3.88;2.30;;;;;;;-145.00;41.41;71939.72;5068997;28;20041;-76
2023/08/16 09:44:05;;;;;;;4.05;2.00;;;;;;;-145.00;40.03;71898.09;5069206;28;20053;-76
2023/08/16 09:46:32;;;;;;;3.78;2.17;;;;;;;-145.00;40.13;71918.91;5068890;28;20051;-76
2023/08/16 09:49:03;;;;;;;2.80;2.10;;;;;;;-145.00;42.08;72089.56;5069142;28;20044;-76
2023/08/16 09:51:32;;;;;;;3.45;2.22;;;;;;;-145.00;43.72;72002.16;5068759;28;20048;-73
2023/08/16 09:53:59;;;;;;;4.78;2.00;;;;;;;-145.00;40.52;71960.53;5069037;28;20048;-75
2023/08/16 09:56:28;;;;;;;4.10;2.00;;;;;;;-145.00;38.88;71964.69;5068346;28;20127;-76
2023/08/16 09:58:55;;;;;;;3.05;1.83;;;;;;;-145.00;41.32;71952.19;5068627;28;20055;-75
2023/08/16 10:01:23;;;;;;;4.57;1.90;;;;;;;-145.00;40.56;71906.41;5068346;28;20105;-75
2023/08/16 10:03:53;;;;;;;3.00;1.85;;;;;;;-145.00;42.17;71877.28;5068605;28;20055;-75
2023/08/16 10:06:22;;;;;;;3.72;1.60;;;;;;;-145.00;38.86;71881.44;5068269;28;20045;-73
2023/08/16 10:08:49;;;;;;;2.60;2.10;;;;;;;-145.00;41.61;71873.09;5068857;28;20056;-74
2023/08/16 10:11:17;;;;;;;3.13;2.00;;;;;;;-145.00;40.64;71873.09;5067679;28;20044;-76
2023/08/16 10:13:44;;;;;;;5.15;2.28;;;;;;;-145.00;40.90;71860.63;5068403;28;20044;-75
2023/08/16 10:16:14;;;;;;;2.85;1.90;;;;;;;-145.00;39.89;71852.28;5068112;28;20076;-75
2023/08/16 10:18:43;;;;;;;3.38;2.20;;;;;;;-145.00;40.16;71873.09;5068559;28;20048;-73
2023/08/16 10:21:15;;;;;;;4.25;1.92;;;;;;;-145.00;39.99;71854.38;5067978;28;20695;-74
2023/08/16 10:23:42;;;;;;;4.68;2.13;;;;;;;-145.00;39.56;71843.97;5068677;28;20048;-75
2023/08/16 10:26:13;;;;;;;3.58;1.75;;;;;;;-145.00;39.75;71877.28;5067914;28;20041;-75
2023/08/16 10:28:40;;;;;;;4.07;1.60;;;;;;;-145.00;40.07;71852.28;5068654;28;20048;-73
2023/08/16 10:31:09;;;;;;;3.90;1.77;;;;;;;-145.00;38.15;71848.13;5067331;28;20063;-75
2023/08/16 10:33:39;;;;;;;3.80;1.80;;;;;;;-145.00;39.21;71837.72;5068119;28;20049;-75
2023/08/16 10:36:09;;;;;;;4.75;1.85;;;;;;;-145.00;38.19;71810.66;5067568;28;20142;-73
2023/08/16 10:38:36;;;;;;;3.65;1.92;;;;;;;-145.00;37.15;71804.44;5066394;28;20109;-75
2023/08/16 10:41:03;;;;;;;2.83;1.75;;;;;;;-145.00;37.83;71848.13;5066698;28;20075;-74
2023/08/16 10:43:35;;;;;;;4.40;2.17;;;;;;;-145.00;38.74;71848.13;5068053;28;20109;-73
2023/08/16 10:46:02;;;;;;;3.10;2.10;;;;;;;-145.00;38.36;71896.00;5067740;28;20052;-73
2023/08/16 10:48:33;;;;;;;3.70;1.88;;;;;;;-145.00;38.48;71871.03;5067855;28;20048;-73
2023/08/16 10:51:03;;;;;;;3.42;1.88;;;;;;;-145.00;39.79;71856.47;5067989;28;20045;-76
2023/08/16 10:53:32;;;;;;;3.00;1.90;;;;;;;-145.00;40.51;71823.16;5067393;28;20401;-73
2023/08/16 10:55:59;;;;;;;2.97;1.58;;;;;;;-145.00;38.44;71831.47;5067815;28;20051;-73
2023/08/16 10:58:28;;;;;;;2.75;1.80;;;;;;;-145.00;38.21;71814.84;5067099;28;20472;-73
2023/08/16 11:00:57;;;;;;;2.40;1.70;;;;;;;-145.00;37.46;71812.75;5067279;28;20436;-74
2023/08/16 11:03:30;;;;;;;2.50;1.80;;;;;;;-145.00;39.62;71785.69;5067190;28;20048;-73
2023/08/16 11:05:59;;;;;;;3.63;2.00;;;;;;;-145.00;38.00;71773.22;5067439;28;20071;-76
2023/08/16 11:08:31;;;;;;;2.85;1.67;;;;;;;-145.00;38.29;71769.03;5067323;28;20052;-75
2023/08/16 11:10:58;;;;;;;3.72;2.00;;;;;;;-145.00;37.88;71775.28;5067552;28;20101;-75
2023/08/16 11:13:27;;;;;;;4.25;1.88;;;;;;;-145.00;38.39;71777.38;5066943;28;20051;-75
2023/08/16 11:15:54;;;;;;;3.33;1.92;;;;;;;-145.00;37.70;71769.03;5067305;28;20059;-75